createdAt,value
2023-02-20T00:00:03.182Z,24.27
2023-02-20T00:02:35.372Z,24.70
2023-02-20T00:05:04.777Z,25.07
2023-02-20T00:07:36.540Z,28.87
2023-02-20T00:10:06.060Z,26.83
2023-02-20T00:12:35.413Z,26.77
2023-02-20T00:15:05.491Z,25.53
2023-02-20T00:17:35.199Z,25.10
2023-02-20T00:20:04.477Z,25.63
2023-02-20T00:22:39.639Z,26.23
2023-02-20T00:25:08.963Z,25.30
2023-02-20T00:27:37.911Z,26.20
2023-02-20T00:30:08.042Z,25.37
2023-02-20T00:32:37.019Z,26.20
2023-02-20T00:35:06.013Z,26.07
2023-02-20T00:37:38.526Z,25.43
2023-02-20T00:40:09.293Z,26.43
2023-02-20T00:42:38.136Z,34.97
2023-02-20T00:45:08.606Z,42.33
2023-02-20T00:47:37.452Z,30.50
2023-02-20T00:50:08.522Z,27.70
2023-02-20T00:52:39.705Z,26.10
2023-02-20T00:55:09.221Z,26.07
2023-02-20T00:57:38.277Z,25.97
2023-02-20T01:00:10.986Z,26.27
2023-02-20T01:02:40.733Z,26.00
2023-02-20T01:05:09.734Z,24.57
2023-02-20T01:07:40.013Z,25.53
2023-02-20T01:10:10.894Z,26.20
2023-02-20T01:12:41.127Z,25.87
2023-02-20T01:15:11.218Z,26.20
2023-02-20T01:17:40.128Z,26.97
2023-02-20T01:20:34.542Z,27.37
2023-02-20T01:23:08.579Z,28.50
2023-02-20T01:25:37.505Z,26.13
2023-02-20T01:28:06.797Z,28.40
2023-02-20T01:30:35.634Z,29.63
2023-02-20T01:33:04.631Z,28.93
2023-02-20T01:35:33.510Z,32.10
2023-02-20T01:38:06.653Z,31.47
2023-02-20T01:40:37.323Z,32.33
2023-02-20T01:43:06.364Z,35.73
2023-02-20T01:45:37.527Z,53.77
2023-02-20T01:48:06.905Z,34.70
2023-02-20T01:50:42.060Z,31.70
2023-02-20T01:53:13.940Z,35.60
2023-02-20T01:55:49.472Z,31.50
2023-02-20T01:58:22.517Z,30.77
2023-02-20T02:00:52.575Z,27.53
2023-02-20T02:03:24.338Z,28.40
2023-02-20T02:05:59.439Z,27.67
2023-02-20T02:08:30.236Z,26.57
2023-02-20T02:11:04.144Z,26.00
2023-02-20T02:13:38.056Z,26.80
2023-02-20T02:16:18.527Z,25.20
2023-02-20T02:18:56.570Z,25.67
2023-02-20T02:22:01.092Z,24.93
2023-02-20T02:25:17.402Z,26.37
2023-02-20T02:28:08.843Z,24.33
2023-02-20T02:31:07.866Z,26.67
2023-02-20T02:34:03.904Z,28.70
2023-02-20T02:36:43.152Z,28.97
2023-02-20T02:39:22.241Z,28.50
2023-02-20T02:41:59.114Z,27.83
2023-02-20T02:44:34.376Z,27.30
2023-02-20T02:47:07.126Z,27.63
2023-02-20T02:49:55.003Z,27.60
2023-02-20T02:52:46.855Z,29.37
2023-02-20T02:55:19.256Z,29.10
2023-02-20T02:57:49.093Z,28.40
2023-02-20T03:00:22.991Z,27.97
2023-02-20T03:02:58.624Z,28.00
2023-02-20T03:05:40.524Z,26.30
2023-02-20T03:08:22.684Z,41.33
2023-02-20T03:10:54.512Z,30.50
2023-02-20T03:13:48.468Z,27.47
2023-02-20T03:16:22.535Z,30.53
2023-02-20T03:18:54.147Z,33.97
2023-02-20T03:21:25.643Z,34.10
2023-02-20T03:24:02.501Z,35.13
2023-02-20T03:26:36.387Z,49.60
2023-02-20T03:29:13.966Z,37.70
2023-02-20T03:31:48.211Z,37.43
2023-02-20T03:34:55.752Z,37.53
2023-02-20T03:37:50.376Z,36.33
2023-02-20T03:43:36.517Z,45.07
2023-02-20T03:46:14.414Z,46.03
2023-02-20T03:48:46.878Z,42.40
2023-02-20T03:54:33.691Z,32.43
2023-02-20T03:57:08.593Z,30.50
2023-02-20T03:59:42.005Z,32.67
2023-02-20T04:02:16.725Z,33.10
2023-02-20T04:04:49.848Z,34.63
2023-02-20T04:07:49.740Z,34.47
2023-02-20T04:10:23.804Z,34.47
2023-02-20T04:12:57.863Z,34.73
2023-02-20T04:15:27.560Z,38.83
2023-02-20T04:18:01.570Z,40.70
2023-02-20T04:20:31.556Z,42.57
2023-02-20T04:23:14.728Z,43.17
2023-02-20T04:25:48.481Z,49.13
2023-02-20T04:28:19.668Z,49.83
2023-02-20T04:31:02.060Z,53.03
2023-02-20T04:33:32.521Z,47.13
2023-02-20T04:36:06.186Z,53.30
2023-02-20T04:38:35.762Z,51.20
2023-02-20T04:41:07.802Z,49.97
2023-02-20T04:43:38.440Z,44.00
2023-02-20T04:46:08.146Z,40.67
2023-02-20T04:48:37.886Z,40.73
2023-02-20T04:51:07.190Z,44.40
2023-02-20T04:53:40.336Z,46.70
2023-02-20T04:56:09.703Z,55.73
2023-02-20T04:58:47.541Z,55.63
2023-02-20T05:01:21.044Z,145.83
2023-02-20T05:03:58.312Z,90.03
2023-02-20T05:06:27.401Z,100.90
2023-02-20T05:08:56.190Z,69.07
2023-02-20T05:11:25.094Z,51.67
2023-02-20T05:14:02.214Z,53.20
2023-02-20T05:16:32.266Z,55.90
2023-02-20T05:19:01.309Z,63.27
2023-02-20T05:21:48.017Z,76.83
2023-02-20T05:24:17.045Z,58.67
2023-02-20T05:26:53.506Z,69.63
2023-02-20T05:29:27.445Z,62.83
2023-02-20T05:31:57.346Z,49.97
2023-02-20T05:34:26.352Z,44.83
2023-02-20T05:36:58.623Z,48.83
2023-02-20T05:39:27.779Z,38.57
2023-02-20T05:41:58.127Z,37.20
2023-02-20T05:44:33.402Z,38.67
2023-02-20T05:47:02.671Z,36.23
2023-02-20T05:49:32.419Z,40.07
2023-02-20T05:52:04.045Z,35.97
2023-02-20T05:54:34.070Z,34.43
2023-02-20T05:57:04.096Z,38.60
2023-02-20T05:59:41.329Z,39.97
2023-02-20T06:02:10.268Z,41.60
2023-02-20T06:04:39.229Z,41.80
2023-02-20T06:07:10.739Z,41.97
2023-02-20T06:09:42.923Z,43.70
2023-02-20T06:12:14.113Z,46.17
2023-02-20T06:14:45.339Z,49.17
2023-02-20T06:17:16.319Z,53.03
2023-02-20T06:19:46.276Z,59.53
2023-02-20T06:22:17.580Z,52.37
2023-02-20T06:24:49.494Z,49.17
2023-02-20T06:27:19.507Z,55.10
2023-02-20T06:30:03.043Z,57.20
2023-02-20T06:32:32.120Z,62.00
2023-02-20T06:35:01.011Z,63.40
2023-02-20T06:37:29.811Z,59.63
2023-02-20T06:39:58.743Z,58.20
2023-02-20T06:42:27.915Z,64.50
2023-02-20T06:44:58.213Z,65.60
2023-02-20T06:47:27.089Z,70.10
2023-02-20T06:49:56.009Z,69.10
2023-02-20T06:52:24.942Z,62.60
2023-02-20T06:54:54.430Z,59.80
2023-02-20T06:57:26.337Z,54.17
2023-02-20T06:59:55.280Z,38.80
2023-02-20T07:02:25.634Z,36.47
2023-02-20T07:04:54.501Z,35.00
2023-02-20T07:07:23.371Z,35.50
2023-02-20T07:09:52.795Z,32.00
2023-02-20T07:12:26.279Z,25.93
2023-02-20T07:14:58.643Z,23.73
2023-02-20T07:17:29.326Z,24.13
2023-02-20T07:19:59.848Z,24.77
2023-02-20T07:22:28.948Z,28.07
2023-02-20T07:24:57.989Z,72.67
2023-02-20T07:27:27.096Z,35.17
2023-02-20T07:29:56.764Z,37.57
2023-02-20T07:32:25.552Z,43.77
2023-02-20T07:35:04.043Z,45.60
2023-02-20T07:37:36.312Z,31.50
2023-02-20T07:40:06.368Z,32.50
2023-02-20T07:42:35.300Z,35.67
2023-02-20T07:45:24.009Z,38.60
2023-02-20T07:47:53.267Z,41.60
2023-02-20T07:50:23.625Z,51.87
2023-02-20T07:52:52.500Z,48.27
2023-02-20T07:55:21.524Z,34.90
2023-02-20T07:57:52.106Z,40.07
2023-02-20T08:00:22.282Z,30.07
2023-02-20T08:02:51.170Z,31.67
2023-02-20T08:05:25.555Z,46.63
2023-02-20T08:07:55.163Z,65.80
2023-02-20T08:10:27.842Z,53.67
2023-02-20T08:12:57.691Z,52.40
2023-02-20T08:15:26.745Z,36.57
2023-02-20T08:17:58.667Z,33.77
2023-02-20T08:20:29.080Z,34.17
2023-02-20T08:23:01.094Z,36.47
2023-02-20T08:25:30.288Z,47.80
2023-02-20T08:27:59.876Z,46.67
2023-02-20T08:30:30.489Z,51.47
2023-02-20T08:33:19.472Z,40.17
2023-02-20T08:35:54.588Z,32.03
2023-02-20T08:38:36.224Z,31.40
2023-02-20T08:41:11.597Z,34.70
2023-02-20T08:43:43.589Z,42.07
2023-02-20T08:46:20.956Z,38.90
2023-02-20T08:48:53.929Z,39.43
2023-02-20T08:51:26.697Z,41.80
2023-02-20T08:53:55.808Z,44.73
2023-02-20T08:56:32.102Z,45.60
2023-02-20T08:59:01.825Z,51.47
2023-02-20T09:01:30.776Z,56.40
2023-02-20T09:03:59.777Z,54.50
2023-02-20T09:06:30.082Z,51.57
2023-02-20T09:08:58.988Z,32.93
2023-02-20T09:11:30.232Z,37.23
2023-02-20T09:13:59.785Z,34.90
2023-02-20T09:16:28.840Z,26.33
2023-02-20T09:19:08.839Z,21.53
2023-02-20T09:21:39.279Z,19.47
2023-02-20T09:24:09.202Z,18.33
2023-02-20T09:26:38.135Z,19.63
2023-02-20T09:29:08.401Z,18.03
2023-02-20T09:31:37.695Z,17.07
2023-02-20T09:34:07.287Z,30.23
2023-02-20T09:36:36.375Z,36.57
2023-02-20T09:39:08.365Z,39.10
2023-02-20T09:41:51.149Z,31.47
2023-02-20T09:44:27.345Z,21.80
2023-02-20T09:47:28.457Z,14.03
2023-02-20T09:50:01.514Z,21.17
2023-02-20T09:52:32.123Z,18.43
2023-02-20T09:55:12.032Z,20.30
2023-02-20T09:57:57.098Z,17.47
2023-02-20T10:00:32.445Z,18.37
2023-02-20T10:03:14.498Z,24.97
2023-02-20T10:05:45.890Z,23.87
2023-02-20T10:08:22.269Z,26.07
2023-02-20T10:10:57.729Z,52.90
2023-02-20T10:13:57.261Z,47.70
2023-02-20T10:16:37.136Z,30.13
2023-02-20T10:19:18.127Z,26.67
2023-02-20T10:22:00.945Z,23.23
2023-02-20T10:24:48.384Z,20.80
2023-02-20T10:27:30.589Z,15.93
2023-02-20T10:30:27.238Z,15.43
2023-02-20T10:33:02.973Z,15.77
2023-02-20T10:35:38.051Z,16.73
2023-02-20T10:38:13.419Z,21.77
2023-02-20T10:41:06.975Z,22.03
2023-02-20T10:43:44.485Z,19.00
2023-02-20T10:46:20.417Z,29.27
2023-02-20T10:48:50.308Z,22.87
2023-02-20T10:51:31.503Z,21.60
2023-02-20T10:54:05.985Z,26.13
2023-02-20T10:56:41.097Z,22.67
2023-02-20T10:59:19.873Z,19.73
2023-02-20T11:01:54.025Z,20.00
2023-02-20T11:04:33.914Z,18.30
2023-02-20T11:07:07.810Z,13.93
2023-02-20T11:09:37.499Z,12.77
2023-02-20T11:12:07.497Z,16.87
2023-02-20T11:14:47.459Z,23.93
2023-02-20T11:17:19.706Z,17.00
2023-02-20T11:19:49.941Z,14.90
2023-02-20T11:25:44.426Z,13.90
2023-02-20T11:28:53.903Z,12.63
2023-02-20T11:31:28.341Z,10.90
2023-02-20T11:34:00.451Z,12.83
2023-02-20T11:37:13.601Z,12.53
2023-02-20T11:39:51.239Z,10.30
2023-02-20T11:42:25.038Z,10.77
2023-02-20T11:45:15.316Z,9.70
2023-02-20T11:48:17.226Z,9.77
2023-02-20T11:50:50.726Z,12.40
2023-02-20T11:53:27.055Z,9.30
2023-02-20T11:56:12.691Z,31.23
2023-02-20T11:58:53.390Z,20.57
2023-02-20T12:01:32.479Z,25.87
2023-02-20T12:04:03.568Z,9.97
2023-02-20T12:06:48.480Z,9.30
2023-02-20T12:09:29.381Z,10.37
2023-02-20T12:12:01.440Z,9.73
2023-02-20T12:14:34.140Z,11.20
2023-02-20T12:17:11.612Z,11.07
2023-02-20T12:20:08.119Z,9.80
2023-02-20T12:22:40.886Z,12.23
2023-02-20T12:25:22.035Z,14.10
2023-02-20T12:28:05.135Z,9.87
2023-02-20T12:30:55.409Z,10.50
2023-02-20T12:33:48.819Z,12.60
2023-02-20T12:36:29.528Z,10.03
2023-02-20T12:39:15.159Z,11.03
2023-02-20T12:41:56.739Z,11.73
2023-02-20T12:44:48.619Z,15.20
2023-02-20T12:47:28.499Z,18.00
2023-02-20T12:50:13.233Z,17.10
2023-02-20T12:53:08.049Z,15.17
2023-02-20T12:56:07.343Z,12.60
2023-02-20T12:58:48.815Z,15.03
2023-02-20T13:01:30.696Z,14.63
2023-02-20T13:04:08.058Z,11.17
2023-02-20T13:06:44.774Z,11.03
2023-02-20T13:12:16.678Z,11.37
2023-02-20T13:14:59.768Z,12.07
2023-02-20T13:17:37.285Z,14.33
2023-02-20T13:20:16.868Z,14.60
2023-02-20T13:22:45.732Z,13.50
2023-02-20T13:25:39.596Z,14.07
2023-02-20T13:28:44.805Z,15.00
2023-02-20T13:31:20.444Z,20.70
2023-02-20T13:33:53.688Z,31.80
2023-02-20T13:36:45.668Z,35.10
2023-02-20T13:39:44.761Z,31.40
2023-02-20T13:42:36.881Z,29.40
2023-02-20T13:45:41.719Z,26.37
2023-02-20T13:48:35.270Z,25.47
2023-02-20T13:51:48.989Z,23.77
2023-02-20T13:54:35.477Z,22.50
2023-02-20T13:57:18.442Z,29.07
2023-02-20T13:59:50.766Z,33.10
2023-02-20T14:02:25.000Z,25.30
2023-02-20T14:04:59.794Z,26.13
2023-02-20T14:07:35.208Z,25.17
2023-02-20T14:10:07.761Z,16.97
2023-02-20T14:12:37.639Z,16.40
2023-02-20T14:15:09.130Z,13.17
2023-02-20T14:17:43.142Z,12.97
2023-02-20T14:20:23.353Z,11.90
2023-02-20T14:23:08.420Z,12.97
2023-02-20T14:25:37.454Z,12.20
2023-02-20T14:28:14.217Z,12.30
2023-02-20T14:30:43.696Z,11.60
2023-02-20T14:33:26.030Z,12.90
2023-02-20T14:36:14.664Z,22.10
2023-02-20T14:39:01.870Z,15.20
2023-02-20T14:41:32.309Z,17.73
2023-02-20T14:44:03.175Z,12.10
2023-02-20T14:46:34.417Z,13.67
2023-02-20T14:49:12.693Z,13.20
2023-02-20T14:51:42.172Z,12.30
2023-02-20T14:54:20.175Z,11.90
2023-02-20T14:57:08.624Z,12.73
2023-02-20T14:59:40.012Z,15.50
2023-02-20T15:02:31.327Z,13.90
2023-02-20T15:05:08.203Z,16.83
2023-02-20T15:07:40.159Z,14.50
2023-02-20T15:10:35.415Z,12.03
2023-02-20T15:13:09.959Z,11.50
2023-02-20T15:15:40.722Z,10.33
2023-02-20T15:18:12.723Z,12.97
2023-02-20T15:20:44.326Z,18.13
2023-02-20T15:23:25.972Z,18.23
2023-02-20T15:25:55.212Z,19.73
2023-02-20T15:28:29.634Z,23.97
2023-02-20T15:31:25.255Z,24.17
2023-02-20T15:33:55.760Z,24.17
2023-02-20T15:36:27.839Z,19.80
2023-02-20T15:38:57.913Z,23.40
2023-02-20T15:41:27.080Z,20.23
2023-02-20T15:43:56.057Z,24.10
2023-02-20T15:46:24.990Z,22.87
2023-02-20T15:49:20.927Z,24.87
2023-02-20T15:51:56.215Z,25.47
2023-02-20T15:54:28.867Z,27.50
2023-02-20T15:56:57.753Z,23.10
2023-02-20T15:59:26.615Z,18.23
2023-02-20T16:01:55.562Z,18.77
2023-02-20T16:04:26.478Z,22.23
2023-02-20T16:06:56.849Z,38.33
2023-02-20T16:09:25.838Z,38.77
2023-02-20T16:11:55.766Z,35.33
2023-02-20T16:14:24.813Z,34.33
2023-02-20T16:17:01.053Z,31.33
2023-02-20T16:19:42.117Z,37.70
2023-02-20T16:22:13.216Z,26.10
2023-02-20T16:24:47.940Z,30.60
2023-02-20T16:27:24.901Z,45.60
2023-02-20T16:29:55.455Z,43.43
2023-02-20T16:32:36.776Z,25.77
2023-02-20T16:35:07.322Z,23.37
2023-02-20T16:37:38.818Z,21.93
2023-02-20T16:40:17.908Z,18.93
2023-02-20T16:42:49.560Z,20.40
2023-02-20T16:45:23.886Z,19.87
2023-02-20T16:47:59.716Z,24.30
2023-02-20T16:50:35.964Z,24.37
2023-02-20T16:53:09.238Z,21.27
2023-02-20T16:55:39.919Z,19.23
2023-02-20T16:58:10.065Z,19.47
2023-02-20T17:00:55.095Z,19.67
2023-02-20T17:03:32.439Z,20.43
2023-02-20T17:06:03.020Z,19.10
2023-02-20T17:08:36.657Z,18.23
2023-02-20T17:11:07.328Z,18.93
2023-02-20T17:13:36.863Z,18.87
2023-02-20T17:16:06.111Z,19.27
2023-02-20T17:18:37.253Z,19.30
2023-02-20T17:21:07.174Z,17.23
2023-02-20T17:23:41.541Z,18.17
2023-02-20T17:26:17.468Z,18.07
2023-02-20T17:28:48.379Z,17.67
2023-02-20T17:31:21.993Z,16.27
2023-02-20T17:33:52.081Z,16.30
2023-02-20T17:36:22.089Z,16.00
2023-02-20T17:38:52.515Z,15.10
2023-02-20T17:41:21.616Z,15.20
2023-02-20T17:43:54.174Z,16.37
2023-02-20T17:46:24.498Z,14.87
2023-02-20T17:48:57.333Z,16.20
2023-02-20T17:51:27.489Z,14.77
2023-02-20T17:53:58.925Z,15.00
2023-02-20T17:56:29.345Z,15.67
2023-02-20T17:58:58.289Z,18.80
2023-02-20T18:01:28.054Z,15.70
2023-02-20T18:04:04.925Z,14.50
2023-02-20T18:06:36.662Z,17.33
2023-02-20T18:09:12.808Z,17.53
2023-02-20T18:11:43.117Z,16.07
2023-02-20T18:14:12.824Z,17.27
2023-02-20T18:16:43.310Z,15.77
2023-02-20T18:19:18.220Z,15.43
2023-02-20T18:22:06.672Z,17.00
2023-02-20T18:24:42.550Z,14.97
2023-02-20T18:27:13.079Z,14.57
2023-02-20T18:29:49.592Z,15.30
2023-02-20T18:32:18.670Z,14.37
2023-02-20T18:34:52.967Z,14.80
2023-02-20T18:37:35.670Z,14.80
2023-02-20T18:40:09.885Z,14.93
2023-02-20T18:42:54.025Z,15.60
2023-02-20T18:45:24.529Z,16.00
2023-02-20T18:47:59.164Z,15.70
2023-02-20T18:50:30.729Z,16.47
2023-02-20T18:52:59.804Z,25.87
2023-02-20T18:55:32.128Z,22.93
2023-02-20T18:58:04.216Z,22.03
2023-02-20T19:00:37.094Z,19.20
2023-02-20T19:03:10.108Z,19.77
2023-02-20T19:05:45.004Z,19.33
2023-02-20T19:08:15.210Z,19.47
2023-02-20T19:10:45.742Z,19.47
2023-02-20T19:13:14.661Z,23.93
2023-02-20T19:15:43.488Z,24.93
2023-02-20T19:18:13.405Z,28.73
2023-02-20T19:20:42.345Z,22.93
2023-02-20T19:23:11.162Z,24.67
2023-02-20T19:25:41.742Z,25.07
2023-02-20T19:28:13.721Z,23.43
2023-02-20T19:30:43.083Z,24.10
2023-02-20T19:33:14.249Z,22.90
2023-02-20T19:35:43.208Z,24.60
2023-02-20T19:38:12.897Z,27.20
2023-02-20T19:40:41.797Z,33.70
2023-02-20T19:43:14.332Z,47.00
2023-02-20T19:45:45.158Z,47.03
2023-02-20T19:48:14.143Z,48.50
2023-02-20T19:50:43.105Z,43.07
2023-02-20T19:53:11.982Z,39.03
2023-02-20T19:55:41.378Z,37.87
2023-02-20T19:58:10.243Z,34.20
2023-02-20T20:00:39.545Z,36.03
2023-02-20T20:03:11.284Z,32.60
2023-02-20T20:05:40.325Z,32.07
2023-02-20T20:08:12.680Z,27.33
2023-02-20T20:10:43.260Z,26.03
2023-02-20T20:13:12.427Z,26.23
2023-02-20T20:15:41.615Z,24.40
2023-02-20T20:18:13.371Z,25.20
2023-02-20T20:20:42.535Z,27.03
2023-02-20T20:23:11.462Z,26.80
2023-02-20T20:25:55.206Z,28.90
2023-02-20T20:28:31.174Z,29.63
2023-02-20T20:31:02.589Z,34.70
2023-02-20T20:33:51.995Z,34.00
2023-02-20T20:36:22.412Z,25.60
2023-02-20T20:38:56.395Z,24.67
2023-02-20T20:41:44.450Z,25.37
2023-02-20T20:44:17.014Z,24.83
2023-02-20T20:47:02.149Z,25.57
2023-02-20T20:52:53.124Z,24.03
2023-02-20T20:55:22.026Z,23.70
2023-02-20T20:57:53.098Z,24.07
2023-02-20T21:00:27.301Z,19.03
2023-02-20T21:02:57.838Z,24.80
2023-02-20T21:05:37.175Z,31.40
2023-02-20T21:08:26.066Z,31.40
2023-02-20T21:10:59.648Z,33.63
2023-02-20T21:13:34.304Z,32.43
2023-02-20T21:16:03.517Z,29.07
2023-02-20T21:18:34.017Z,36.80
2023-02-20T21:21:04.497Z,39.53
2023-02-20T21:23:33.829Z,37.57
2023-02-20T21:26:03.132Z,36.00
2023-02-20T21:28:32.037Z,39.10
2023-02-20T21:31:01.037Z,34.70
2023-02-20T21:33:32.547Z,38.20
2023-02-20T21:36:05.182Z,36.00
2023-02-20T21:38:36.216Z,37.03
2023-02-20T21:41:05.899Z,38.20
2023-02-20T21:43:52.467Z,39.73
2023-02-20T21:46:21.933Z,40.10
2023-02-20T21:48:54.751Z,38.87
2023-02-20T21:51:24.014Z,37.73
2023-02-20T21:53:54.409Z,38.80
2023-02-20T21:56:23.393Z,39.63
2023-02-20T21:59:05.740Z,39.33
2023-02-20T22:01:52.776Z,41.17
2023-02-20T22:04:21.391Z,40.57
2023-02-20T22:07:08.398Z,39.50
2023-02-20T22:09:56.176Z,36.00
2023-02-20T22:12:43.343Z,34.97
2023-02-20T22:15:31.782Z,33.97
2023-02-20T22:18:18.037Z,31.90
2023-02-20T22:21:05.259Z,29.33
2023-02-20T22:23:51.658Z,31.07
2023-02-20T22:26:39.539Z,29.93
2023-02-20T22:29:28.928Z,31.57
2023-02-20T22:32:14.968Z,32.07
2023-02-20T22:35:10.757Z,35.47
2023-02-20T22:37:58.082Z,50.33
2023-02-20T22:40:44.487Z,48.97
2023-02-20T22:43:32.339Z,44.97
2023-02-20T22:46:18.754Z,38.70
2023-02-20T22:49:05.003Z,46.37
2023-02-20T22:51:51.400Z,43.53
2023-02-20T22:54:41.145Z,47.53
2023-02-20T22:57:27.929Z,64.97
2023-02-20T23:00:16.721Z,55.80
2023-02-20T23:03:03.099Z,42.23
2023-02-20T23:05:49.088Z,42.40
2023-02-20T23:08:53.957Z,40.23
2023-02-20T23:11:40.329Z,42.93
2023-02-20T23:14:26.753Z,38.47
2023-02-20T23:17:18.747Z,39.37
2023-02-20T23:20:09.809Z,40.17
2023-02-20T23:22:56.125Z,40.43
2023-02-20T23:25:42.471Z,36.67
2023-02-20T23:28:37.033Z,34.80
2023-02-20T23:31:24.012Z,36.13
2023-02-20T23:34:11.404Z,33.50
2023-02-20T23:36:57.799Z,43.70
2023-02-20T23:39:43.882Z,42.60
2023-02-20T23:42:29.871Z,41.30
2023-02-20T23:45:16.149Z,41.67
2023-02-20T23:48:02.206Z,44.20
2023-02-20T23:50:49.610Z,49.83
2023-02-20T23:53:36.054Z,53.60
2023-02-20T23:56:23.710Z,58.33
2023-02-20T23:59:09.854Z,47.00
